Time;durP1;ratioP1;P1;durP2;ratioP2;P2;SDS_P1;SDS_P2;PMS_P1;PMS_P2;Temp;Humidity;BMP_temperature;BMP_pressure;BME280_temperature;BME280_humidity;BME280_pressure;Samples;Min_cycle;Max_cycle;Signal;HPM_P1;HPM_P2
2022/12/12 00:03:49;;;;;;;38.40;15.75;;;;;;;0.83;100.00;99197.13;12185196;19;20014;-83
2022/12/12 00:07:51;;;;;;;30.90;14.20;;;;;;;0.81;100.00;99202.75;12212058;19;20011;-82
2022/12/12 00:11:52;;;;;;;30.15;13.13;;;;;;;0.79;100.00;99196.69;12204038;19;20011;-82
2022/12/12 00:15:54;;;;;;;34.40;15.23;;;;;;;0.77;100.00;99195.22;12187349;19;20006;-82
2022/12/12 00:19:56;;;;;;;33.28;13.23;;;;;;;0.69;100.00;99196.25;12208870;19;20007;-81
2022/12/12 00:23:58;;;;;;;31.38;13.00;;;;;;;0.60;100.00;99186.59;12200952;19;20525;-82
2022/12/12 00:27:59;;;;;;;37.43;15.00;;;;;;;0.59;100.00;99187.63;12185565;19;20006;-82
2022/12/12 00:32:01;;;;;;;31.27;13.55;;;;;;;0.61;100.00;99193.69;12202295;19;20350;-83
2022/12/12 00:36:03;;;;;;;42.13;15.30;;;;;;;0.51;100.00;99183.22;12199514;19;20039;-81
2022/12/12 00:40:05;;;;;;;37.17;14.70;;;;;;;0.47;100.00;99189.22;12206426;19;20039;-82
2022/12/12 00:44:07;;;;;;;39.08;14.50;;;;;;;0.45;100.00;99195.69;12199967;19;20027;-82
2022/12/12 00:48:10;;;;;;;41.92;14.63;;;;;;;0.46;100.00;99196.53;12183440;19;20011;-82
2022/12/12 00:52:12;;;;;;;35.75;14.82;;;;;;;0.43;100.00;99196.94;12201929;19;20035;-81
2022/12/12 00:56:16;;;;;;;36.50;15.68;;;;;;;0.41;100.00;99196.28;12203871;19;20484;-82
2022/12/12 01:00:19;;;;;;;35.78;14.43;;;;;;;0.39;100.00;99193.78;12181442;19;20087;-80
2022/12/12 01:04:23;;;;;;;39.92;15.85;;;;;;;0.38;100.00;99205.63;12190824;19;20027;-82
2022/12/12 01:08:24;;;;;;;39.35;15.07;;;;;;;0.39;100.00;99196.50;12201539;19;20016;-81
2022/12/12 01:12:26;;;;;;;32.10;13.80;;;;;;;0.43;100.00;99205.06;12180798;19;20472;-83
2022/12/12 01:16:28;;;;;;;36.30;14.18;;;;;;;0.48;100.00;99207.16;12203462;19;20010;-82
2022/12/12 01:20:30;;;;;;;24.90;10.20;;;;;;;0.51;100.00;99209.50;12200618;19;20018;-82
2022/12/12 01:24:32;;;;;;;35.33;14.75;;;;;;;0.56;100.00;99215.97;12177054;19;20030;-83
2022/12/12 01:28:35;;;;;;;43.72;16.13;;;;;;;0.58;100.00;99219.31;12196549;19;20069;-82
2022/12/12 01:32:36;;;;;;;;;;;;;;;0.59;100.00;99217.44;12199285;19;20032;-82
2022/12/12 01:36:38;;;;;;;36.85;14.10;;;;;;;0.57;100.00;99217.66;12175982;19;19982;-82
2022/12/12 01:40:40;;;;;;;40.92;15.32;;;;;;;0.57;100.00;99220.38;12200769;19;20306;-81
2022/12/12 01:44:50;;;;;;;32.22;13.77;;;;;;;0.62;100.00;99219.75;12198487;19;20473;-82
2022/12/12 01:48:57;;;;;;;36.97;15.10;;;;;;;0.64;100.00;99220.41;12181807;19;20003;-81
2022/12/12 01:52:59;;;;;;;40.05;16.60;;;;;;;0.65;100.00;99224.78;12201859;19;20007;-81
2022/12/12 01:57:05;;;;;;;38.13;15.07;;;;;;;0.66;100.00;99224.59;12204836;19;20373;-81
2022/12/12 02:01:09;;;;;;;41.65;17.00;;;;;;;0.68;100.00;99230.66;12182174;19;20013;-81
2022/12/12 02:06:03;;;;;;;38.28;15.40;;;;;;;0.65;100.00;99227.50;12202190;19;20003;-81
2022/12/12 02:10:05;;;;;;;39.60;16.08;;;;;;;0.63;100.00;99226.88;12179706;19;20011;-81
2022/12/12 02:14:07;;;;;;;45.27;17.17;;;;;;;0.61;100.00;99228.94;12236860;19;20110;-79
2022/12/12 02:18:14;;;;;;;43.17;16.58;;;;;;;0.57;100.00;99227.69;12241913;19;20039;-79
2022/12/12 02:22:29;;;;;;;42.80;18.70;;;;;;;0.59;100.00;99233.72;12228707;19;20132;-79
2022/12/12 02:27:04;;;;;;;48.28;17.23;;;;;;;0.63;100.00;99226.88;12221197;19;20023;-81
2022/12/12 02:31:47;;;;;;;45.38;18.17;;;;;;;0.65;100.00;99230.19;12194825;19;20020;-79
2022/12/12 02:36:05;;;;;;;46.17;16.40;;;;;;;0.68;100.00;99238.81;12213307;19;20010;-82
2022/12/12 02:40:23;;;;;;;42.97;17.23;;;;;;;0.74;100.00;99244.44;12191098;19;20011;-79
2022/12/12 02:44:41;;;;;;;41.33;16.90;;;;;;;0.79;100.00;99242.81;12211756;19;19999;-82
2022/12/12 02:48:56;;;;;;;44.33;17.92;;;;;;;0.81;100.00;99246.16;12193835;19;20472;-80
2022/12/12 02:52:59;;;;;;;48.67;17.77;;;;;;;0.85;100.00;99243.88;12241197;19;20050;-81
2022/12/12 02:57:01;;;;;;;46.95;17.55;;;;;;;0.89;100.00;99251.44;12246841;19;20045;-80
2022/12/12 03:01:35;;;;;;;43.10;17.38;;;;;;;0.93;100.00;99245.59;12196257;19;20017;-80
2022/12/12 03:10:27;;;;;;;46.35;18.73;;;;;;;0.94;100.00;99242.66;12192009;19;20078;-82
2022/12/12 03:14:56;;;;;;;38.80;15.60;;;;;;;0.97;100.00;99238.72;12213549;19;20013;-82
2022/12/12 03:19:14;;;;;;;48.92;18.10;;;;;;;0.99;100.00;99236.66;12193020;19;20003;-82
2022/12/12 03:23:23;;;;;;;44.78;18.00;;;;;;;0.99;100.00;99239.38;12213561;19;20703;-81
2022/12/12 03:27:52;;;;;;;43.10;17.98;;;;;;;0.95;100.00;99238.91;12199299;19;20910;-82
2022/12/12 03:31:59;;;;;;;41.17;17.73;;;;;;;0.96;100.00;99240.59;12218848;19;20006;-82
2022/12/12 03:36:08;;;;;;;41.53;17.83;;;;;;;0.97;100.00;99233.28;12244682;19;20035;-80
2022/12/12 03:40:23;;;;;;;41.85;17.77;;;;;;;0.94;100.00;99236.41;12232488;19;20015;-83
2022/12/12 03:44:31;;;;;;;44.35;16.40;;;;;;;0.97;100.00;99236.00;12215293;19;20003;-81
2022/12/12 03:48:47;;;;;;;47.83;18.30;;;;;;;0.94;100.00;99228.28;12198993;19;20015;-82
2022/12/12 03:53:02;;;;;;;47.33;17.30;;;;;;;0.94;100.00;99226.38;12212138;19;20169;-82
2022/12/12 03:57:08;;;;;;;42.10;17.65;;;;;;;0.93;100.00;99229.31;12201857;19;20030;-80
2022/12/12 04:01:11;;;;;;;47.30;17.85;;;;;;;0.96;100.00;99232.47;12241457;19;19998;-81
2022/12/12 04:05:24;;;;;;;41.13;16.98;;;;;;;0.99;100.00;99232.06;12212030;19;20018;-83
2022/12/12 04:14:16;;;;;;;43.40;17.30;;;;;;;0.96;100.00;99239.75;12203520;19;20480;-82
2022/12/12 04:18:27;;;;;;;45.92;17.92;;;;;;;0.99;100.00;99239.38;12187339;19;20386;-81
2022/12/12 04:27:08;;;;;;;41.50;15.98;;;;;;;0.92;100.00;99244.72;12205825;19;20508;-81
2022/12/12 04:31:10;;;;;;;47.65;16.92;;;;;;;0.91;100.00;99241.19;12183507;19;20010;-81
2022/12/12 04:35:31;;;;;;;49.03;18.33;;;;;;;0.91;100.00;99238.47;12203819;19;20002;-82
2022/12/12 04:39:37;;;;;;;40.83;18.27;;;;;;;0.88;100.00;99238.06;12180383;19;20011;-82
2022/12/12 04:43:42;;;;;;;44.03;17.42;;;;;;;0.89;100.00;99246.00;12203080;19;20006;-83
2022/12/12 04:47:48;;;;;;;50.10;18.48;;;;;;;0.94;100.00;99247.25;12204267;19;20010;-81
2022/12/12 04:51:56;;;;;;;39.00;15.35;;;;;;;0.91;100.00;99254.75;12179507;19;20023;-81
2022/12/12 04:56:04;;;;;;;46.80;18.38;;;;;;;0.93;100.00;99259.16;12202769;19;20006;-81
2022/12/12 05:00:07;;;;;;;49.08;18.02;;;;;;;0.96;100.00;99266.91;12184471;19;20046;-83
2022/12/12 05:04:19;;;;;;;45.53;19.23;;;;;;;0.99;100.00;99266.50;12203653;19;20006;-82
2022/12/12 05:08:28;;;;;;;43.75;18.05;;;;;;;1.02;100.00;99266.91;12206166;19;20643;-80
2022/12/12 05:12:38;;;;;;;41.97;17.38;;;;;;;1.06;100.00;99270.06;12177007;19;20011;-82
2022/12/12 05:16:48;;;;;;;40.72;17.00;;;;;;;1.09;100.00;99272.38;12202845;19;20077;-82
2022/12/12 05:20:50;;;;;;;41.60;17.05;;;;;;;1.10;100.00;99276.75;12203427;19;20007;-81
2022/12/12 05:24:51;;;;;;;41.28;15.63;;;;;;;1.15;100.00;99279.69;12178074;19;20039;-82
2022/12/12 05:28:54;;;;;;;45.92;17.65;;;;;;;1.19;100.00;99281.00;12199628;19;20036;-82
2022/12/12 05:32:55;;;;;;;49.05;17.27;;;;;;;1.21;100.00;99284.31;12198762;19;20023;-80
2022/12/12 05:36:57;;;;;;;36.13;15.38;;;;;;;1.19;100.00;99282.84;12174484;19;20006;-82
2022/12/12 05:40:59;;;;;;;45.75;16.90;;;;;;;1.24;100.00;99289.34;12199073;19;19999;-82
2022/12/12 05:45:00;;;;;;;37.30;15.50;;;;;;;1.24;100.00;99281.19;12201086;19;20009;-81
2022/12/12 05:49:02;;;;;;;41.80;16.23;;;;;;;1.26;100.00;99291.88;12175529;19;20392;-81
2022/12/12 05:53:04;;;;;;;35.72;15.38;;;;;;;1.25;100.00;99292.88;12200119;19;20373;-79
2022/12/12 05:57:06;;;;;;;40.33;15.55;;;;;;;1.21;100.00;99284.31;12176230;19;20042;-81
2022/12/12 06:01:08;;;;;;;42.43;15.70;;;;;;;1.20;100.00;99289.97;12199371;19;20031;-81
2022/12/12 06:05:10;;;;;;;29.45;11.43;;;;;;;1.20;100.00;99293.50;12192119;19;20003;-81
2022/12/12 06:09:12;;;;;;;42.53;14.73;;;;;;;1.22;100.00;99302.31;12177701;19;20828;-81
2022/12/12 06:13:14;;;;;;;37.83;15.45;;;;;;;1.23;100.00;99295.00;12198106;19;20011;-82
2022/12/12 06:17:16;;;;;;;41.67;16.57;;;;;;;1.26;100.00;99306.28;12200097;19;20411;-83
2022/12/12 06:21:18;;;;;;;35.63;14.43;;;;;;;1.26;100.00;99303.56;12176846;19;20094;-82
2022/12/12 06:25:20;;;;;;;24.55;9.90;;;;;;;1.26;100.00;99300.84;12193859;19;20051;-81
2022/12/12 06:29:21;;;;;;;37.07;13.80;;;;;;;1.17;100.00;99314.81;12199428;19;20007;-82
2022/12/12 06:33:24;;;;;;;36.17;13.90;;;;;;;1.08;100.00;99314.13;12182117;19;20098;-81
2022/12/12 06:37:26;;;;;;;37.53;13.55;;;;;;;1.07;100.00;99321.44;12210060;19;20015;-81
2022/12/12 06:41:29;;;;;;;35.70;13.50;;;;;;;1.10;100.00;99318.31;12210004;19;20010;-82
2022/12/12 06:45:31;;;;;;;32.03;13.60;;;;;;;1.17;100.00;99312.91;12176011;19;20002;-80
2022/12/12 06:49:33;;;;;;;36.45;14.77;;;;;;;1.19;100.00;99327.13;12201291;19;20414;-79
2022/12/12 06:53:35;;;;;;;36.67;14.27;;;;;;;1.12;100.00;99315.38;12197480;19;20055;-80
2022/12/12 06:57:37;;;;;;;35.10;13.00;;;;;;;1.09;100.00;99315.78;12170914;19;20448;-81
2022/12/12 07:01:38;;;;;;;34.42;13.57;;;;;;;1.06;100.00;99329.75;12190168;19;20074;-81
2022/12/12 07:05:40;;;;;;;39.28;14.82;;;;;;;1.05;100.00;99333.53;12209341;19;20003;-80
2022/12/12 07:09:42;;;;;;;33.85;12.98;;;;;;;1.02;100.00;99336.63;12184183;19;20019;-80
2022/12/12 07:13:44;;;;;;;36.03;15.00;;;;;;;0.99;100.00;99343.28;12213086;19;20030;-80
2022/12/12 07:17:45;;;;;;;32.13;12.95;;;;;;;0.99;100.00;99354.16;12199178;19;20349;-82
2022/12/12 07:21:47;;;;;;;39.28;14.15;;;;;;;0.98;100.00;99347.06;12207733;19;20021;-81
2022/12/12 07:25:49;;;;;;;40.75;14.52;;;;;;;0.96;100.00;99345.56;12210270;19;20013;-81
2022/12/12 07:29:50;;;;;;;38.63;13.52;;;;;;;0.96;100.00;99359.97;12194372;19;20018;-79
2022/12/12 07:33:53;;;;;;;36.55;13.70;;;;;;;0.91;100.00;99357.00;12206627;19;20027;-81
2022/12/12 07:37:55;;;;;;;;;;;;;;;0.89;100.00;99359.94;12216007;19;20015;-80
2022/12/12 07:41:57;;;;;;;28.38;12.20;;;;;;;0.88;100.00;99365.53;12192241;19;19918;-81
2022/12/12 07:45:59;;;;;;;;;;;;;;;0.86;100.00;99363.03;12210514;19;20017;-82
2022/12/12 07:50:01;;;;;;;30.73;11.70;;;;;;;0.93;100.00;99370.38;12217953;19;19919;-82
2022/12/12 07:54:03;;;;;;;32.78;12.45;;;;;;;0.95;100.00;99369.13;12195416;19;20014;-81
2022/12/12 07:58:05;;;;;;;34.33;13.60;;;;;;;1.01;100.00;99381.06;12262669;19;20009;-82
2022/12/12 08:02:09;;;;;;;33.85;12.70;;;;;;;1.01;100.00;99372.91;12243848;19;20014;-83
2022/12/12 08:06:11;;;;;;;31.83;13.57;;;;;;;1.01;100.00;99375.63;12202130;19;20132;-85
2022/12/12 08:10:13;;;;;;;32.42;13.65;;;;;;;1.07;100.00;99380.25;12213333;19;20442;-83
2022/12/12 08:14:15;;;;;;;31.42;13.05;;;;;;;1.12;100.00;99388.66;12216750;19;20030;-83
2022/12/12 08:18:17;;;;;;;33.88;12.38;;;;;;;1.08;100.00;99390.09;12195014;19;20078;-82
2022/12/12 08:22:19;;;;;;;30.95;12.60;;;;;;;1.08;100.00;99388.22;12256235;19;19995;-81
2022/12/12 08:26:21;;;;;;;30.63;11.50;;;;;;;1.13;100.00;99393.03;12235177;19;20135;-83
2022/12/12 08:30:22;;;;;;;31.45;11.77;;;;;;;1.11;100.00;99389.69;12194973;19;20066;-83
2022/12/12 08:34:25;;;;;;;31.55;12.55;;;;;;;1.14;100.00;99398.28;12212323;19;20414;-82
2022/12/12 08:38:29;;;;;;;30.70;10.88;;;;;;;1.15;100.00;99390.97;12192075;19;20025;-82
2022/12/12 08:42:30;;;;;;;34.80;13.23;;;;;;;1.12;100.00;99397.63;12209041;19;20014;-83
2022/12/12 08:46:34;;;;;;;30.80;12.65;;;;;;;1.08;100.00;99401.78;12211872;19;20360;-82
2022/12/12 08:50:39;;;;;;;32.55;12.15;;;;;;;1.05;100.00;99396.75;12191556;19;20018;-83
2022/12/12 08:54:40;;;;;;;31.33;12.13;;;;;;;1.06;100.00;99403.84;12212901;19;20006;-81
2022/12/12 08:58:42;;;;;;;33.33;11.90;;;;;;;1.02;100.00;99402.59;12210160;19;20029;-83
2022/12/12 09:02:44;;;;;;;35.23;12.17;;;;;;;0.99;100.00;99402.16;12186854;19;20007;-83
2022/12/12 09:06:46;;;;;;;27.67;12.40;;;;;;;0.93;100.00;99403.78;12209963;19;20006;-83
2022/12/12 09:10:49;;;;;;;33.47;13.40;;;;;;;0.91;100.00;99408.53;12206905;19;20003;-83
2022/12/12 09:14:50;;;;;;;31.15;13.10;;;;;;;0.89;100.00;99419.63;12184866;19;20006;-83
2022/12/12 09:18:55;;;;;;;33.13;13.13;;;;;;;0.93;100.00;99421.94;12204146;19;20010;-82
2022/12/12 09:22:57;;;;;;;33.35;13.50;;;;;;;0.88;100.00;99428.75;12204300;19;20199;-82
2022/12/12 09:26:59;;;;;;;34.63;13.37;;;;;;;0.81;100.00;99432.47;12186707;19;20034;-83
2022/12/12 09:31:09;;;;;;;37.70;16.20;;;;;;;0.81;100.00;99433.31;12208470;19;20066;-83
2022/12/12 09:35:11;;;;;;;33.53;13.52;;;;;;;0.87;100.00;99437.94;12203806;19;20046;-83
2022/12/12 09:39:13;;;;;;;34.90;13.38;;;;;;;0.98;100.00;99443.84;12183744;19;20378;-80
2022/12/12 09:43:19;;;;;;;32.60;13.20;;;;;;;1.04;100.00;99440.34;12205547;19;20041;-82
2022/12/12 09:47:44;;;;;;;36.33;14.73;;;;;;;1.14;100.00;99432.72;12192240;19;20039;-84
2022/12/12 09:51:48;;;;;;;34.75;13.00;;;;;;;1.28;100.00;99433.63;12215837;19;21114;-85
2022/12/12 09:56:05;;;;;;;31.27;13.80;;;;;;;1.63;100.00;99439.91;12210734;19;20035;-83
2022/12/12 10:00:11;;;;;;;34.80;13.00;;;;;;;1.97;100.00;99435.47;12191655;19;20298;-85
2022/12/12 10:04:39;;;;;;;36.90;13.63;;;;;;;2.11;100.00;99429.00;12208454;19;20013;-82
2022/12/12 10:08:56;;;;;;;31.63;13.45;;;;;;;2.26;100.00;99427.00;12186489;19;20018;-82
2022/12/12 10:13:01;;;;;;;29.75;11.65;;;;;;;2.51;100.00;99421.78;12202922;19;20006;-82
2022/12/12 10:17:12;;;;;;;29.95;12.13;;;;;;;2.60;100.00;99429.75;12210453;19;20017;-83
2022/12/12 10:21:20;;;;;;;34.47;13.57;;;;;;;2.69;100.00;99420.34;12186910;19;20730;-82
2022/12/12 10:25:32;;;;;;;38.05;14.00;;;;;;;2.63;98.28;99424.75;12207715;19;20014;-83
2022/12/12 10:29:36;;;;;;;30.42;13.60;;;;;;;2.57;98.02;99432.91;12192294;19;20017;-82
2022/12/12 10:33:57;;;;;;;38.50;14.75;;;;;;;2.65;98.89;99424.56;12220207;19;19999;-84
2022/12/12 10:38:11;;;;;;;30.05;14.05;;;;;;;2.84;97.41;99440.03;12224550;19;20019;-83
2022/12/12 10:42:45;;;;;;;34.20;13.85;;;;;;;2.88;96.87;99440.44;12198685;19;20010;-82
2022/12/12 10:46:56;;;;;;;33.17;13.90;;;;;;;2.80;96.22;99435.22;12218952;19;20640;-83
2022/12/12 10:51:06;;;;;;;34.55;14.07;;;;;;;2.75;95.30;99438.56;12201456;19;20010;-83
2022/12/12 10:55:18;;;;;;;32.47;13.80;;;;;;;2.71;95.20;99434.59;12219858;19;20011;-83
2022/12/12 10:59:22;;;;;;;34.97;14.27;;;;;;;2.71;95.89;99440.03;12218368;19;20007;-83
2022/12/12 11:03:38;;;;;;;30.27;13.30;;;;;;;2.84;96.04;99431.03;12196693;19;20555;-84
2022/12/12 11:08:06;;;;;;;35.13;14.35;;;;;;;3.03;95.47;99427.47;12213602;19;20006;-84
2022/12/12 11:12:43;;;;;;;30.23;13.45;;;;;;;3.19;94.81;99431.66;12184773;19;20010;-84
2022/12/12 11:16:45;;;;;;;29.55;13.05;;;;;;;3.26;94.53;99437.09;12209622;19;21613;-84
2022/12/12 11:26:45;;;;;;;34.70;13.10;;;;;;;3.22;93.10;99435.84;12209590;19;20014;-84
2022/12/12 11:31:12;;;;;;;31.27;12.75;;;;;;;3.32;93.35;99434.34;12211620;19;20014;-84
2022/12/12 11:35:37;;;;;;;37.40;13.18;;;;;;;3.41;92.62;99427.63;12208816;19;20070;-85
2022/12/12 11:39:54;;;;;;;35.00;14.90;;;;;;;3.39;91.13;99428.88;12188119;19;20635;-85
2022/12/12 11:44:40;;;;;;;33.58;14.55;;;;;;;3.45;91.16;99421.75;12201989;19;20026;-84
2022/12/12 11:48:56;;;;;;;33.38;13.95;;;;;;;3.40;90.00;99427.84;12209571;19;20097;-84
2022/12/12 11:53:02;;;;;;;33.85;13.68;;;;;;;3.28;90.33;99424.94;12207182;19;20035;-84
2022/12/12 11:57:13;;;;;;;31.50;13.02;;;;;;;3.31;91.48;99426.41;12189540;19;20066;-85
2022/12/12 12:01:51;;;;;;;39.13;13.48;;;;;;;3.44;91.15;99423.63;12212721;19;20030;-85
2022/12/12 12:12:04;;;;;;;34.15;13.07;;;;;;;3.41;89.78;99407.72;12209236;19;20463;-85
2022/12/12 12:21:42;;;;;;;31.45;12.80;;;;;;;2.76;90.35;99396.69;12236521;19;20139;-85
2022/12/12 12:36:12;;;;;;;30.08;12.50;;;;;;;2.66;91.23;99399.00;12188118;19;20036;-85
2022/12/12 12:40:52;;;;;;;31.63;11.82;;;;;;;2.73;91.12;99394.41;12204284;19;20120;-84
2022/12/12 12:45:17;;;;;;;25.58;10.52;;;;;;;2.66;90.07;99390.84;12185384;19;20003;-84
2022/12/12 12:49:31;;;;;;;23.15;10.75;;;;;;;2.66;90.50;99388.13;12207873;19;20010;-85
2022/12/12 12:53:41;;;;;;;23.02;9.43;;;;;;;2.66;88.85;99388.97;12183386;19;20499;-81
2022/12/12 12:57:45;;;;;;;23.52;9.68;;;;;;;2.67;89.23;99387.91;12208208;19;20007;-83
2022/12/12 13:01:52;;;;;;;21.55;9.85;;;;;;;2.91;89.22;99383.72;12215086;19;20035;-82
2022/12/12 13:05:59;;;;;;;23.23;10.15;;;;;;;3.22;89.86;99378.66;12200853;19;20024;-82
2022/12/12 13:10:07;;;;;;;18.92;8.48;;;;;;;3.49;88.52;99379.44;12246559;19;20078;-81
2022/12/12 13:14:20;;;;;;;18.75;8.85;;;;;;;3.65;87.79;99366.16;12267997;19;20003;-80
2022/12/12 13:18:31;;;;;;;17.50;7.78;;;;;;;3.70;86.24;99365.50;12218371;19;20013;-81
2022/12/12 13:23:10;;;;;;;17.77;7.43;;;;;;;3.50;84.25;99372.91;12269279;19;19998;-81
2022/12/12 13:27:21;;;;;;;17.45;7.28;;;;;;;3.39;84.23;99366.22;12218328;19;20494;-82
2022/12/12 13:31:30;;;;;;;21.05;8.45;;;;;;;3.31;83.91;99370.03;12227874;19;20035;-80
2022/12/12 13:35:37;;;;;;;19.27;8.40;;;;;;;3.22;83.32;99370.50;12206797;19;20003;-82
2022/12/12 13:39:39;;;;;;;19.38;8.30;;;;;;;3.10;83.20;99379.31;12224458;19;20116;-81
2022/12/12 13:43:44;;;;;;;19.88;8.05;;;;;;;3.02;83.18;99381.41;12224033;19;20010;-82
2022/12/12 13:47:49;;;;;;;23.30;9.65;;;;;;;2.92;83.49;99369.06;12201759;19;20010;-81
2022/12/12 13:52:21;;;;;;;23.10;9.80;;;;;;;2.87;83.51;99366.13;12221894;19;20471;-81
2022/12/12 13:56:40;;;;;;;18.13;8.43;;;;;;;2.83;83.56;99361.34;12221023;19;20014;-81
2022/12/12 14:00:42;;;;;;;20.80;8.45;;;;;;;2.76;83.28;99365.94;12200180;19;20440;-81
2022/12/12 14:04:45;;;;;;;27.52;10.13;;;;;;;2.72;82.67;99370.97;12217787;19;20468;-81
2022/12/12 14:08:50;;;;;;;24.55;10.35;;;;;;;2.66;83.11;99372.63;12216913;19;20215;-81
2022/12/12 14:12:53;;;;;;;22.58;10.25;;;;;;;2.60;83.23;99369.91;12242727;19;20099;-82
2022/12/12 14:16:55;;;;;;;24.42;10.73;;;;;;;2.57;83.89;99367.63;12245298;19;20017;-81
2022/12/12 14:21:09;;;;;;;;;;;;;;;2.49;83.79;99371.38;12226582;19;20007;-81
2022/12/12 14:25:10;;;;;;;22.67;9.85;;;;;;;2.36;84.21;99371.38;12243578;19;19910;-82
2022/12/12 14:29:16;;;;;;;29.58;12.43;;;;;;;2.28;84.77;99373.22;12242321;19;20017;-82
2022/12/12 14:33:50;;;;;;;29.90;11.15;;;;;;;2.21;84.91;99379.72;12220429;19;20006;-82
2022/12/12 14:38:17;;;;;;;23.10;10.80;;;;;;;2.12;85.43;99362.75;12244254;19;20071;-82
2022/12/12 14:42:46;;;;;;;26.40;12.05;;;;;;;2.00;85.28;99367.97;12219453;19;20048;-81
2022/12/12 14:47:08;;;;;;;27.38;10.93;;;;;;;1.92;86.28;99372.75;12237935;19;20006;-82
2022/12/12 14:51:21;;;;;;;32.95;12.18;;;;;;;1.87;86.27;99364.34;12217039;19;20010;-82
2022/12/12 14:55:30;;;;;;;28.27;10.60;;;;;;;1.75;86.24;99370.38;12238482;19;20656;-82
2022/12/12 14:59:38;;;;;;;31.23;11.18;;;;;;;1.65;86.92;99367.22;12218694;19;19998;-81
2022/12/12 15:03:47;;;;;;;25.30;10.90;;;;;;;1.58;87.54;99371.78;12233278;19;20014;-83
2022/12/12 15:07:57;;;;;;;28.30;11.60;;;;;;;1.49;88.01;99371.13;12234884;19;20444;-82
2022/12/12 15:12:19;;;;;;;25.48;10.73;;;;;;;1.42;88.28;99381.09;12214171;19;20010;-82
2022/12/12 15:16:45;;;;;;;34.65;12.05;;;;;;;1.32;88.48;99389.63;12237258;19;20006;-82
2022/12/12 15:20:56;;;;;;;34.15;13.02;;;;;;;1.20;89.02;99385.78;12200774;19;20014;-81
2022/12/12 15:24:59;;;;;;;28.23;11.05;;;;;;;1.08;89.72;99388.22;12222247;19;21391;-82
2022/12/12 15:29:02;;;;;;;27.05;10.38;;;;;;;0.98;90.11;99386.88;12224125;19;20013;-81
2022/12/12 15:33:14;;;;;;;26.02;11.23;;;;;;;0.85;90.71;99385.75;12199890;19;20007;-81
2022/12/12 15:37:19;;;;;;;28.50;10.90;;;;;;;0.78;91.32;99395.72;12225322;19;20346;-81
2022/12/12 15:41:21;;;;;;;26.30;10.90;;;;;;;0.68;91.75;99397.94;12251371;19;20016;-81
2022/12/12 15:45:37;;;;;;;27.50;11.05;;;;;;;0.60;92.13;99400.81;12223607;19;20036;-82
2022/12/12 15:49:43;;;;;;;23.08;10.52;;;;;;;0.52;92.55;99398.22;12222963;19;20010;-82
2022/12/12 15:53:48;;;;;;;31.88;11.95;;;;;;;0.41;92.97;99391.44;12199135;19;20369;-81
2022/12/12 15:57:51;;;;;;;27.50;12.02;;;;;;;0.34;93.30;99388.66;12221640;19;20007;-81
2022/12/12 16:01:53;;;;;;;30.15;10.73;;;;;;;0.24;93.73;99385.47;12217827;19;20015;-81
2022/12/12 16:06:02;;;;;;;25.17;12.23;;;;;;;0.15;94.13;99383.88;12192936;19;20010;-82
2022/12/12 16:10:10;;;;;;;27.20;10.23;;;;;;;0.08;94.30;99381.09;12213792;19;20409;-81
2022/12/12 16:14:31;;;;;;;30.02;10.52;;;;;;;0.01;94.75;99382.09;12213926;19;20062;-82
2022/12/12 16:18:41;;;;;;;27.42;11.13;;;;;;;-0.08;95.26;99384.06;12187455;19;20720;-82
2022/12/12 16:22:44;;;;;;;27.13;11.23;;;;;;;-0.14;95.68;99382.13;12211237;19;20359;-82
2022/12/12 16:26:45;;;;;;;28.20;10.35;;;;;;;-0.20;95.99;99381.03;12189030;19;20070;-82
2022/12/12 16:30:54;;;;;;;25.13;8.13;;;;;;;-0.27;96.30;99389.09;12208677;19;20027;-81
2022/12/12 16:34:56;;;;;;;25.02;10.23;;;;;;;-0.34;96.56;99380.03;12210801;19;20014;-81
2022/12/12 16:38:57;;;;;;;31.25;11.77;;;;;;;-0.40;96.63;99379.94;12189399;19;20035;-82
2022/12/12 16:43:01;;;;;;;32.80;11.65;;;;;;;-0.49;96.84;99393.59;12206892;19;20031;-81
2022/12/12 16:47:19;;;;;;;34.90;13.17;;;;;;;-0.53;97.33;99419.34;12211780;19;20017;-82
2022/12/12 16:51:29;;;;;;;28.92;12.15;;;;;;;-0.59;97.72;99414.69;12200047;19;20661;-83
2022/12/12 16:55:34;;;;;;;32.30;12.63;;;;;;;-0.62;98.04;99420.50;12212049;19;20027;-81
2022/12/12 16:59:37;;;;;;;31.42;11.82;;;;;;;-0.64;97.98;99417.13;12187902;19;20681;-82
2022/12/12 17:03:39;;;;;;;33.70;11.82;;;;;;;-0.66;98.38;99419.16;12209117;19;20002;-81
2022/12/12 17:07:41;;;;;;;25.98;11.52;;;;;;;-0.68;98.62;99415.81;12206037;19;20006;-81
2022/12/12 17:11:42;;;;;;;28.75;10.85;;;;;;;-0.72;98.94;99420.75;12183764;19;20501;-82
2022/12/12 17:15:45;;;;;;;33.40;12.20;;;;;;;-0.75;98.81;99421.13;12209138;19;20035;-81
2022/12/12 17:19:46;;;;;;;26.15;10.65;;;;;;;-0.77;99.27;99422.34;12199492;19;20013;-81
2022/12/12 17:23:48;;;;;;;32.70;11.57;;;;;;;-0.82;99.01;99416.66;12183444;19;20035;-81
2022/12/12 17:27:51;;;;;;;28.08;9.13;;;;;;;-0.89;99.20;99413.00;12205002;19;20102;-79
2022/12/12 17:31:53;;;;;;;32.95;11.10;;;;;;;-0.94;99.48;99405.47;12208675;19;20404;-78
2022/12/12 17:36:04;;;;;;;33.63;11.73;;;;;;;-0.95;100.00;99401.91;12196909;19;21178;-83
2022/12/12 17:40:09;;;;;;;29.83;12.15;;;;;;;-0.97;100.00;99400.41;12205269;19;20020;-81
2022/12/12 17:44:11;;;;;;;35.10;13.55;;;;;;;-1.01;100.00;99396.38;12201897;19;20002;-81
2022/12/12 17:48:14;;;;;;;32.00;11.75;;;;;;;-1.03;100.00;99391.19;12186047;19;20572;-83
2022/12/12 17:52:15;;;;;;;27.83;12.43;;;;;;;-1.08;100.00;99393.59;12197252;19;20065;-80
2022/12/12 17:56:20;;;;;;;27.80;11.03;;;;;;;-1.13;100.00;99397.88;12205182;19;20366;-82
2022/12/12 18:00:22;;;;;;;31.02;11.27;;;;;;;-1.18;100.00;99398.44;12228673;19;19991;-79
2022/12/12 18:04:34;;;;;;;27.95;11.93;;;;;;;-1.22;100.00;99397.97;12229025;19;20479;-83
2022/12/12 18:08:36;;;;;;;27.08;11.27;;;;;;;-1.24;100.00;99404.59;12184575;19;20003;-82
2022/12/12 18:12:38;;;;;;;25.38;11.00;;;;;;;-1.26;100.00;99406.63;12201931;19;20007;-82
2022/12/12 18:16:41;;;;;;;24.33;10.45;;;;;;;-1.30;100.00;99408.03;12202878;19;20669;-81
2022/12/12 18:20:43;;;;;;;26.40;9.88;;;;;;;-1.32;100.00;99410.06;12159784;19;20467;-78
2022/12/12 18:24:47;;;;;;;30.00;11.45;;;;;;;-1.33;100.00;99413.78;12196699;19;20055;-81
2022/12/12 18:28:54;;;;;;;23.10;9.10;;;;;;;-1.35;100.00;99416.66;12199950;19;20026;-78
2022/12/12 18:32:55;;;;;;;25.73;10.80;;;;;;;-1.38;100.00;99404.34;12192195;19;20434;-81
2022/12/12 18:37:03;;;;;;;25.80;9.80;;;;;;;-1.40;100.00;99417.22;12209317;19;20045;-82
2022/12/12 18:41:05;;;;;;;28.70;9.48;;;;;;;-1.43;100.00;99406.78;12205763;19;20432;-81
2022/12/12 18:45:08;;;;;;;;;;;;;;;-1.47;100.00;99405.44;12186639;19;20010;-82
2022/12/12 18:49:13;;;;;;;25.42;9.13;;;;;;;-1.51;100.00;99412.25;12203308;19;19911;-80
2022/12/12 18:53:16;;;;;;;37.83;13.38;;;;;;;-1.53;100.00;99416.16;12205696;19;20013;-83
2022/12/12 18:57:18;;;;;;;22.07;9.97;;;;;;;-1.55;100.00;99413.63;12241577;19;20036;-79
2022/12/12 19:01:23;;;;;;;25.73;10.70;;;;;;;-1.56;100.00;99406.53;12261868;19;20280;-82
2022/12/12 19:05:25;;;;;;;27.58;10.75;;;;;;;-1.56;100.00;99411.13;12220273;19;21075;-80
2022/12/12 19:09:26;;;;;;;26.43;11.83;;;;;;;-1.58;100.00;99411.28;12196700;19;20007;-81
2022/12/12 19:13:29;;;;;;;32.17;10.98;;;;;;;-1.61;100.00;99414.34;12213916;19;20489;-82
2022/12/12 19:17:30;;;;;;;;;;;;;;;-1.68;100.00;99414.22;12220264;19;20078;-82
2022/12/12 19:21:35;;;;;;;30.67;10.75;;;;;;;-1.70;100.00;99421.66;12187495;19;19963;-82
2022/12/12 19:25:36;;;;;;;28.02;11.35;;;;;;;-1.74;100.00;99409.56;12215153;19;20083;-82
2022/12/12 19:29:43;;;;;;;27.23;10.48;;;;;;;-1.77;100.00;99411.78;12192881;19;20006;-82
2022/12/12 19:33:45;;;;;;;28.95;10.95;;;;;;;-1.81;100.00;99399.63;12214829;19;20496;-82